Impacts TAF Board INFO
FOR SITUATIONAL AWARENESS. NOT TO BE USED FOR FLIGHT PLANNING PURPOSES.
IDs:

KBWI - Baltimore-Washington, MD, US

Issued at 1120 UTC 19 Nov 2017
Updated at 1218 UTC 19 Nov 2017
Potential Impact None Slight Moderate High
Time<<20/01Z 20/02Z 20/03Z 20/04Z 20/05Z 20/06Z 20/07Z 20/08Z 20/09Z 20/10Z 20/11Z 20/12Z 20/13Z>>
Type PRVL PRVL PRVL PRVL PRVL PRVL PRVL PRVL PRVL PRVL PRVL PRVL PRVL
VIS >6 >6 >6 >6 >6 >6 >6 >6 >6 >6 >6 >6 >6
CIG -- -- -- -- -- -- -- -- -- -- -- -- --
Cover SCT SCT SCT SCT SCT SCT SCT SCT SCT SCT SCT SCT SCT
FltCat VFR VFR VFR VFR VFR VFR VFR VFR VFR VFR VFR VFR VFR
WX -- -- -- -- -- -- -- -- -- -- -- -- --
WDir 290 290 280 280 280 280 280 280 280 280 280 280 280
WSpd 12 12 9 9 9 9 9 9 9 9 9 9 9
WGst 19 19 -- -- -- -- -- -- -- -- -- -- --

Raw TAF
KBWI 191120Z 1912/2018 29021G42KT P6SM SCT045
  FM191800 29019G35KT P6SM SCT045
  FM192100 29017G26KT P6SM SCT045
  FM200000 29012G19KT P6SM SCT045
  FM200300 28009KT P6SM SCT045


METAR Board
Radar Display
Forecast Discussion

FOR SITUATIONAL AWARENESS. NOT TO BE USED FOR FLIGHT PLANNING PURPOSES.